Time;durP1;ratioP1;P1;durP2;ratioP2;P2;SDS_P1;SDS_P2;PMS_P1;PMS_P2;Temp;Humidity;BMP_temperature;BMP_pressure;BME280_temperature;BME280_humidity;BME280_pressure;Samples;Min_cycle;Max_cycle;Signal;HPM_P1;HPM_P2
2023/10/25 00:00:53;;;;;;;1999.90;999.90;;;;;;;;;;4948158;29;20205;-67
2023/10/25 00:03:38;;;;;;;1999.90;999.90;;;;;;;;;;4946906;29;20240;-68
2023/10/25 00:06:23;;;;;;;1999.90;999.90;;;;;;;;;;4943565;29;20215;-67
2023/10/25 00:09:08;;;;;;;1999.90;999.90;;;;;;;;;;4936143;29;20248;-67
2023/10/25 00:11:54;;;;;;;1999.90;999.90;;;;;;;;;;4944236;29;20249;-67
2023/10/25 00:14:39;;;;;;;1999.90;999.90;;;;;;;;;;4945873;29;20213;-67
2023/10/25 00:17:24;;;;;;;1999.90;999.90;;;;;;;;;;4954032;29;20208;-67
2023/10/25 00:20:09;;;;;;;1999.90;999.90;;;;;;;;;;4943160;29;20216;-67
2023/10/25 00:22:54;;;;;;;1999.90;999.90;;;;;;;;;;4949946;28;20259;-67
2023/10/25 00:25:39;;;;;;;1999.90;999.90;;;;;;;;;;4953364;29;20691;-68
2023/10/25 00:28:25;;;;;;;1999.90;999.90;;;;;;;;;;4945091;29;20877;-68
2023/10/25 00:31:10;;;;;;;1999.90;999.90;;;;;;;;;;4918104;29;20242;-68
2023/10/25 00:33:55;;;;;;;1999.90;999.90;;;;;;;;;;4947341;28;20240;-67
2023/10/25 00:36:40;;;;;;;1999.90;999.90;;;;;;;;;;4949217;29;20218;-67
2023/10/25 00:39:25;;;;;;;1999.90;999.90;;;;;;;;;;4947764;29;20204;-67
2023/10/25 00:42:10;;;;;;;1999.90;999.90;;;;;;;;;;4948551;28;20348;-67
2023/10/25 00:44:56;;;;;;;1999.90;999.90;;;;;;;;;;4947451;29;20441;-68
2023/10/25 00:47:41;;;;;;;1999.90;999.90;;;;;;;;;;4947045;29;20220;-67
2023/10/25 00:50:27;;;;;;;1999.90;999.90;;;;;;;;;;4950574;28;20349;-67
2023/10/25 00:53:11;;;;;;;1999.90;999.90;;;;;;;;;;4937738;28;20729;-67
2023/10/25 00:55:57;;;;;;;1999.90;999.90;;;;;;;;;;4950641;29;20258;-68
2023/10/25 00:58:44;;;;;;;1999.90;999.90;;;;;;;;;;4949432;29;20224;-67
2023/10/25 01:01:30;;;;;;;1999.90;999.90;;;;;;;;;;4946098;29;20287;-68
2023/10/25 01:04:16;;;;;;;1999.90;999.90;;;;;;;;;;4944143;29;20316;-68
2023/10/25 01:07:01;;;;;;;1999.90;999.90;;;;;;;;;;4936397;29;20809;-67
2023/10/25 01:09:48;;;;;;;1999.90;999.90;;;;;;;;;;4946887;29;20352;-67
2023/10/25 01:12:33;;;;;;;1999.90;999.90;;;;;;;;;;4943506;28;20239;-67
2023/10/25 01:15:21;;;;;;;1999.90;999.90;;;;;;;;;;4943295;29;20212;-68
2023/10/25 01:18:07;;;;;;;1999.90;999.90;;;;;;;;;;4936172;29;20213;-68
2023/10/25 01:20:52;;;;;;;1999.90;999.90;;;;;;;;;;4936776;29;20673;-67
2023/10/25 01:23:38;;;;;;;1999.90;999.90;;;;;;;;;;4947083;29;20229;-67
2023/10/25 01:26:23;;;;;;;1999.90;999.90;;;;;;;;;;4942913;29;20212;-68
2023/10/25 01:29:08;;;;;;;1999.90;999.90;;;;;;;;;;4936124;29;20253;-67
2023/10/25 01:31:53;;;;;;;1999.90;999.90;;;;;;;;;;4942761;29;20260;-68
2023/10/25 01:34:38;;;;;;;1999.90;999.90;;;;;;;;;;4945164;29;20690;-67
2023/10/25 01:37:22;;;;;;;1999.90;999.90;;;;;;;;;;4941102;29;20774;-68
2023/10/25 01:40:10;;;;;;;1999.90;999.90;;;;;;;;;;4916600;29;20257;-67
2023/10/25 01:42:54;;;;;;;1999.90;999.90;;;;;;;;;;4942219;28;20228;-67
2023/10/25 01:45:39;;;;;;;1999.90;999.90;;;;;;;;;;4946804;29;20730;-67
2023/10/25 01:48:24;;;;;;;1999.90;999.90;;;;;;;;;;4937757;29;20256;-67
2023/10/25 01:51:09;;;;;;;1999.90;999.90;;;;;;;;;;4938327;29;20287;-68
2023/10/25 01:53:54;;;;;;;1999.90;999.90;;;;;;;;;;4944392;29;20232;-66
2023/10/25 01:56:41;;;;;;;1999.90;999.90;;;;;;;;;;4942736;29;20209;-68
2023/10/25 01:59:26;;;;;;;1999.90;999.90;;;;;;;;;;4943451;29;20340;-67
2023/10/25 02:02:11;;;;;;;1999.90;999.90;;;;;;;;;;4943564;29;20224;-68
2023/10/25 02:04:56;;;;;;;1999.90;999.90;;;;;;;;;;4951423;29;20545;-67
2023/10/25 02:07:41;;;;;;;1999.90;999.90;;;;;;;;;;4939445;29;20208;-67
2023/10/25 02:10:25;;;;;;;1999.90;999.90;;;;;;;;;;4919259;29;20638;-67
2023/10/25 02:13:12;;;;;;;1999.90;999.90;;;;;;;;;;4935364;28;20789;-67
2023/10/25 02:15:57;;;;;;;1999.90;999.90;;;;;;;;;;4935827;29;20220;-67
2023/10/25 02:18:42;;;;;;;1999.90;999.90;;;;;;;;;;4946029;29;20251;-67
2023/10/25 02:21:27;;;;;;;1999.90;999.90;;;;;;;;;;4945089;29;20208;-68
2023/10/25 02:24:14;;;;;;;1999.90;999.90;;;;;;;;;;4942583;29;20361;-67
2023/10/25 02:26:59;;;;;;;1999.90;999.90;;;;;;;;;;4938302;29;20219;-66
2023/10/25 02:29:45;;;;;;;1999.90;999.90;;;;;;;;;;4941805;29;20705;-67
2023/10/25 02:32:30;;;;;;;1999.90;999.90;;;;;;;;;;4937127;29;20228;-67
2023/10/25 02:35:15;;;;;;;1999.90;999.90;;;;;;;;;;4937303;29;20709;-67
2023/10/25 02:38:00;;;;;;;1999.90;999.90;;;;;;;;;;4945777;29;20301;-67
2023/10/25 02:40:45;;;;;;;1999.90;999.90;;;;;;;;;;4944532;29;20353;-67
2023/10/25 02:43:30;;;;;;;1999.90;999.90;;;;;;;;;;4937082;28;20232;-67
2023/10/25 02:46:16;;;;;;;1999.90;999.90;;;;;;;;;;4940972;29;20430;-68
2023/10/25 02:49:01;;;;;;;1999.90;999.90;;;;;;;;;;4944164;29;20238;-68
2023/10/25 02:51:46;;;;;;;1999.90;999.90;;;;;;;;;;4938777;29;20745;-67
2023/10/25 02:54:31;;;;;;;1999.90;999.90;;;;;;;;;;4916671;29;20220;-68
2023/10/25 02:57:16;;;;;;;1999.90;999.90;;;;;;;;;;4942242;29;20213;-68
2023/10/25 03:00:01;;;;;;;1999.90;999.90;;;;;;;;;;4933000;29;20260;-67
2023/10/25 03:02:47;;;;;;;1999.90;999.90;;;;;;;;;;4938499;29;20246;-68
2023/10/25 03:05:32;;;;;;;1999.90;999.90;;;;;;;;;;4933382;29;20272;-67
2023/10/25 03:08:17;;;;;;;1999.90;999.90;;;;;;;;;;4934005;29;20700;-67
2023/10/25 03:11:02;;;;;;;1999.90;999.90;;;;;;;;;;4940688;29;20282;-68
2023/10/25 03:13:47;;;;;;;1999.90;999.90;;;;;;;;;;4943557;28;20244;-67
2023/10/25 03:16:32;;;;;;;1999.90;999.90;;;;;;;;;;4939041;29;20303;-67
2023/10/25 03:19:18;;;;;;;1999.90;999.90;;;;;;;;;;4917847;29;20213;-67
2023/10/25 03:22:06;;;;;;;1999.90;999.90;;;;;;;;;;4944552;28;20414;-66
2023/10/25 03:24:51;;;;;;;1999.90;999.90;;;;;;;;;;4950601;29;20213;-67
2023/10/25 03:27:36;;;;;;;1999.90;999.90;;;;;;;;;;4948071;29;20208;-66
2023/10/25 03:30:21;;;;;;;1999.90;999.90;;;;;;;;;;4948438;29;20227;-68
2023/10/25 03:33:05;;;;;;;1999.90;999.90;;;;;;;;;;4947290;28;20242;-67
2023/10/25 03:35:55;;;;;;;1999.90;999.90;;;;;;;;;;4948365;29;20299;-68
2023/10/25 03:38:40;;;;;;;1999.90;999.90;;;;;;;;;;4946163;29;20586;-67
2023/10/25 03:41:25;;;;;;;1999.90;999.90;;;;;;;;;;4944332;29;20329;-67
2023/10/25 03:44:10;;;;;;;1999.90;999.90;;;;;;;;;;4949896;28;20501;-67
2023/10/25 03:46:55;;;;;;;1999.90;999.90;;;;;;;;;;4944536;29;20213;-66
2023/10/25 03:49:40;;;;;;;1999.90;999.90;;;;;;;;;;4941522;29;20231;-67
2023/10/25 03:52:26;;;;;;;1999.90;999.90;;;;;;;;;;4939103;28;20345;-67
2023/10/25 03:55:11;;;;;;;1999.90;999.90;;;;;;;;;;4942154;29;20224;-67
2023/10/25 03:57:56;;;;;;;1999.90;999.90;;;;;;;;;;4947556;29;20238;-68
2023/10/25 04:00:41;;;;;;;1999.90;999.90;;;;;;;;;;4935889;29;20373;-66
2023/10/25 04:03:26;;;;;;;1999.90;999.90;;;;;;;;;;4899659;29;1078644;-68
2023/10/25 04:06:11;;;;;;;1999.90;999.90;;;;;;;;;;4937036;29;20224;-67
2023/10/25 04:08:58;;;;;;;1999.90;999.90;;;;;;;;;;4942451;29;20227;-68
2023/10/25 04:11:43;;;;;;;1999.90;999.90;;;;;;;;;;4937342;29;20831;-67
2023/10/25 04:14:28;;;;;;;1999.90;999.90;;;;;;;;;;4936354;29;20245;-68
2023/10/25 04:17:13;;;;;;;1999.90;999.90;;;;;;;;;;4936867;29;20275;-67
2023/10/25 04:19:58;;;;;;;1999.90;999.90;;;;;;;;;;4936606;29;20231;-66
2023/10/25 04:22:43;;;;;;;1999.90;999.90;;;;;;;;;;4937003;29;20240;-68
2023/10/25 04:25:29;;;;;;;1999.90;999.90;;;;;;;;;;4940332;29;20283;-66
2023/10/25 04:28:14;;;;;;;1999.90;999.90;;;;;;;;;;4937614;29;20220;-66
2023/10/25 04:30:59;;;;;;;1999.90;999.90;;;;;;;;;;4935138;29;20354;-65
2023/10/25 04:33:45;;;;;;;1999.90;999.90;;;;;;;;;;4936813;29;20238;-67
2023/10/25 04:36:30;;;;;;;1999.90;999.90;;;;;;;;;;4936718;29;20331;-67
2023/10/25 04:39:15;;;;;;;1999.90;999.90;;;;;;;;;;4944838;29;20588;-67
2023/10/25 04:42:01;;;;;;;1999.90;999.90;;;;;;;;;;4936815;29;20220;-67
2023/10/25 04:44:46;;;;;;;1999.90;999.90;;;;;;;;;;4936651;29;20588;-67
2023/10/25 04:47:31;;;;;;;1999.90;999.90;;;;;;;;;;4944456;29;20308;-67
2023/10/25 04:50:16;;;;;;;1999.90;999.90;;;;;;;;;;4943896;29;20220;-68
2023/10/25 04:53:01;;;;;;;1999.90;999.90;;;;;;;;;;4936200;29;20736;-67
2023/10/25 04:55:46;;;;;;;1999.90;999.90;;;;;;;;;;4944454;29;20224;-67
2023/10/25 04:58:32;;;;;;;1999.90;999.90;;;;;;;;;;4936044;29;20292;-67
2023/10/25 05:01:17;;;;;;;1999.90;999.90;;;;;;;;;;4936272;29;20219;-67
2023/10/25 05:04:02;;;;;;;1999.90;999.90;;;;;;;;;;4935647;29;20514;-66
2023/10/25 05:06:47;;;;;;;1999.90;999.90;;;;;;;;;;4942580;29;20216;-67
2023/10/25 05:09:33;;;;;;;1999.90;999.90;;;;;;;;;;4934285;29;20277;-68
2023/10/25 05:12:18;;;;;;;1999.90;999.90;;;;;;;;;;4935515;29;20232;-66
2023/10/25 05:15:05;;;;;;;1999.90;999.90;;;;;;;;;;4933152;29;20240;-67
2023/10/25 05:17:51;;;;;;;1999.90;999.90;;;;;;;;;;4935996;29;20222;-69
2023/10/25 05:20:36;;;;;;;1999.90;999.90;;;;;;;;;;4929456;29;20215;-67
2023/10/25 05:23:21;;;;;;;1999.90;999.90;;;;;;;;;;4935756;29;20243;-68
2023/10/25 05:26:07;;;;;;;1999.90;999.90;;;;;;;;;;4933144;29;20219;-67
2023/10/25 05:28:52;;;;;;;1999.90;999.90;;;;;;;;;;4935694;29;20220;-67
2023/10/25 05:31:41;;;;;;;1999.90;999.90;;;;;;;;;;4935730;29;20240;-68
2023/10/25 05:34:26;;;;;;;1999.90;999.90;;;;;;;;;;4935547;29;20277;-67
2023/10/25 05:37:11;;;;;;;1999.90;999.90;;;;;;;;;;4935402;29;20644;-68
2023/10/25 05:39:57;;;;;;;1999.90;999.90;;;;;;;;;;4935466;29;20224;-68
2023/10/25 05:42:46;;;;;;;1999.90;999.90;;;;;;;;;;4935460;29;20269;-69
2023/10/25 05:45:31;;;;;;;1999.90;999.90;;;;;;;;;;4935223;29;20213;-68
2023/10/25 05:48:17;;;;;;;1999.90;999.90;;;;;;;;;;4934900;29;20219;-68
2023/10/25 05:51:04;;;;;;;1999.90;999.90;;;;;;;;;;4942998;29;20697;-68
2023/10/25 05:53:50;;;;;;;1999.90;999.90;;;;;;;;;;4930173;29;20233;-67
2023/10/25 05:56:36;;;;;;;1999.90;999.90;;;;;;;;;;4935120;29;20728;-68
2023/10/25 05:59:21;;;;;;;1999.90;999.90;;;;;;;;;;4934950;29;20687;-68
2023/10/25 06:02:09;;;;;;;1999.90;999.90;;;;;;;;;;4934134;29;20559;-68
2023/10/25 06:04:56;;;;;;;1999.90;999.90;;;;;;;;;;4935461;29;20317;-68
2023/10/25 06:07:42;;;;;;;1999.90;999.90;;;;;;;;;;4934298;29;20224;-68
2023/10/25 06:10:27;;;;;;;1999.90;999.90;;;;;;;;;;4935625;29;20279;-67
2023/10/25 06:13:12;;;;;;;1999.90;999.90;;;;;;;;;;4935342;29;20753;-67
2023/10/25 06:15:57;;;;;;;1999.90;999.90;;;;;;;;;;4934959;29;20216;-68
2023/10/25 06:18:42;;;;;;;1999.90;999.90;;;;;;;;;;4942701;29;20205;-68
2023/10/25 06:21:29;;;;;;;1999.90;999.90;;;;;;;;;;4934802;29;20622;-68
2023/10/25 06:24:14;;;;;;;1999.90;999.90;;;;;;;;;;4931514;29;20425;-68
2023/10/25 06:26:58;;;;;;;1999.90;999.90;;;;;;;;;;4929286;29;20731;-69
2023/10/25 06:29:43;;;;;;;1999.90;999.90;;;;;;;;;;4934699;29;20334;-68
2023/10/25 06:32:28;;;;;;;1999.90;999.90;;;;;;;;;;4934405;29;20363;-69
2023/10/25 06:35:13;;;;;;;1999.90;999.90;;;;;;;;;;4934404;29;20293;-68
2023/10/25 06:38:00;;;;;;;1999.90;999.90;;;;;;;;;;4931251;29;20229;-68
2023/10/25 06:40:45;;;;;;;1999.90;999.90;;;;;;;;;;4934418;29;20705;-68
2023/10/25 06:43:31;;;;;;;1999.90;999.90;;;;;;;;;;4939856;29;20241;-68
2023/10/25 06:46:16;;;;;;;1999.90;999.90;;;;;;;;;;4933513;29;20209;-69
2023/10/25 06:49:01;;;;;;;1999.90;999.90;;;;;;;;;;4940034;29;20276;-67
2023/10/25 06:51:47;;;;;;;1999.90;999.90;;;;;;;;;;4935186;29;20232;-68
2023/10/25 06:54:34;;;;;;;1999.90;999.90;;;;;;;;;;4935678;29;20230;-67
2023/10/25 06:57:19;;;;;;;1999.90;999.90;;;;;;;;;;4937971;29;20219;-68
2023/10/25 07:00:06;;;;;;;1999.90;999.90;;;;;;;;;;4942893;29;20219;-67
2023/10/25 07:02:52;;;;;;;1999.90;999.90;;;;;;;;;;4944498;28;20312;-68
2023/10/25 07:05:38;;;;;;;1999.90;999.90;;;;;;;;;;4934279;29;20248;-68
2023/10/25 07:08:24;;;;;;;1999.90;999.90;;;;;;;;;;4944649;29;20463;-66
2023/10/25 07:11:10;;;;;;;1999.90;999.90;;;;;;;;;;4933197;29;20228;-68
2023/10/25 07:13:55;;;;;;;1999.90;999.90;;;;;;;;;;4940192;29;20235;-66
2023/10/25 07:16:40;;;;;;;1999.90;999.90;;;;;;;;;;4931010;29;20208;-68
2023/10/25 07:19:26;;;;;;;1999.90;999.90;;;;;;;;;;4936201;29;20212;-66
2023/10/25 07:22:10;;;;;;;1999.90;999.90;;;;;;;;;;4932198;29;20613;-67
2023/10/25 07:24:56;;;;;;;1999.90;999.90;;;;;;;;;;4942585;29;20209;-66
2023/10/25 07:27:43;;;;;;;1999.90;999.90;;;;;;;;;;4932925;29;20216;-70
2023/10/25 07:30:27;;;;;;;1999.90;999.90;;;;;;;;;;4934765;29;20794;-71
2023/10/25 07:33:13;;;;;;;1999.90;999.90;;;;;;;;;;4932876;28;20304;-69
2023/10/25 07:35:58;;;;;;;1999.90;999.90;;;;;;;;;;4943918;29;20220;-70
2023/10/25 07:38:43;;;;;;;1999.90;999.90;;;;;;;;;;4933736;29;20304;-71
2023/10/25 07:41:28;;;;;;;1999.90;999.90;;;;;;;;;;4935654;29;20229;-71
2023/10/25 07:44:14;;;;;;;1999.90;999.90;;;;;;;;;;4936754;29;20521;-71
2023/10/25 07:46:59;;;;;;;1999.90;999.90;;;;;;;;;;4932035;29;20212;-67
2023/10/25 07:49:46;;;;;;;1999.90;999.90;;;;;;;;;;4936079;29;20212;-70
2023/10/25 07:52:31;;;;;;;1999.90;999.90;;;;;;;;;;4936821;28;20232;-70
2023/10/25 07:55:16;;;;;;;1999.90;999.90;;;;;;;;;;4938947;29;20212;-71
2023/10/25 07:58:01;;;;;;;1999.90;999.90;;;;;;;;;;4935852;29;20221;-70
2023/10/25 08:00:48;;;;;;;1999.90;999.90;;;;;;;;;;4941278;29;20219;-71
2023/10/25 08:03:33;;;;;;;1999.90;999.90;;;;;;;;;;4937571;29;20261;-68
2023/10/25 08:06:18;;;;;;;1999.90;999.90;;;;;;;;;;4934047;29;20830;-71
2023/10/25 08:09:03;;;;;;;1999.90;999.90;;;;;;;;;;4942138;29;20205;-69
2023/10/25 08:11:48;;;;;;;1999.90;999.90;;;;;;;;;;4935469;29;20600;-70
2023/10/25 08:14:33;;;;;;;1999.90;999.90;;;;;;;;;;4941553;29;20825;-68
2023/10/25 08:17:19;;;;;;;1999.90;999.90;;;;;;;;;;4936681;29;20211;-71
2023/10/25 08:20:05;;;;;;;1999.90;999.90;;;;;;;;;;4944926;29;20212;-68
2023/10/25 08:22:51;;;;;;;1999.90;999.90;;;;;;;;;;4939006;29;20239;-68
2023/10/25 08:25:36;;;;;;;1999.90;999.90;;;;;;;;;;4944231;29;20213;-71
2023/10/25 08:28:20;;;;;;;1999.90;999.90;;;;;;;;;;4945610;29;20583;-70
2023/10/25 08:31:12;;;;;;;1999.90;999.90;;;;;;;;;;4945200;29;20206;-71
2023/10/25 08:33:58;;;;;;;1999.90;999.90;;;;;;;;;;4938595;29;20233;-69
2023/10/25 08:36:43;;;;;;;1999.90;999.90;;;;;;;;;;4943382;29;20213;-71
2023/10/25 08:39:28;;;;;;;1999.90;999.90;;;;;;;;;;4935127;29;20573;-70
2023/10/25 08:42:13;;;;;;;1999.90;999.90;;;;;;;;;;4938125;28;20204;-70
2023/10/25 08:44:58;;;;;;;1999.90;999.90;;;;;;;;;;4939424;29;20221;-70
2023/10/25 08:47:43;;;;;;;1999.90;999.90;;;;;;;;;;4941467;29;20357;-68
2023/10/25 08:50:30;;;;;;;1999.90;999.90;;;;;;;;;;4940320;29;20585;-70
2023/10/25 08:53:16;;;;;;;1999.90;999.90;;;;;;;;;;4944341;28;20285;-70
2023/10/25 08:56:01;;;;;;;1999.90;999.90;;;;;;;;;;4936577;29;20217;-69
2023/10/25 08:58:46;;;;;;;1999.90;999.90;;;;;;;;;;4936493;29;20241;-70
2023/10/25 09:01:31;;;;;;;1999.90;999.90;;;;;;;;;;4944362;29;20413;-72
2023/10/25 09:04:16;;;;;;;1999.90;999.90;;;;;;;;;;4936187;29;20357;-70
2023/10/25 09:07:02;;;;;;;1999.90;999.90;;;;;;;;;;4944454;29;20217;-71
2023/10/25 09:09:47;;;;;;;1999.90;999.90;;;;;;;;;;4920942;29;20588;-70
2023/10/25 09:12:32;;;;;;;1999.90;999.90;;;;;;;;;;4935814;29;20237;-68
2023/10/25 09:15:28;;;;;;;1999.90;999.90;;;;;;;;;;4946034;29;20600;-70
2023/10/25 09:18:13;;;;;;;1999.90;999.90;;;;;;;;;;4939574;29;20242;-71
2023/10/25 09:20:59;;;;;;;1999.90;999.90;;;;;;;;;;4935560;29;20284;-70
2023/10/25 09:23:54;;;;;;;1999.90;999.90;;;;;;;;;;4943899;28;20741;-71
2023/10/25 09:26:40;;;;;;;1999.90;999.90;;;;;;;;;;4935768;29;20234;-71
2023/10/25 09:29:26;;;;;;;1999.90;999.90;;;;;;;;;;4935740;29;20213;-70
2023/10/25 09:32:11;;;;;;;1999.90;999.90;;;;;;;;;;4937588;29;20378;-69
2023/10/25 09:34:56;;;;;;;1999.90;999.90;;;;;;;;;;4933212;29;20260;-69
2023/10/25 09:37:41;;;;;;;1999.90;999.90;;;;;;;;;;4937642;29;20713;-68
2023/10/25 09:40:27;;;;;;;1999.90;999.90;;;;;;;;;;4934887;29;20595;-69
2023/10/25 09:43:14;;;;;;;1999.90;999.90;;;;;;;;;;4945719;29;20228;-69
2023/10/25 09:46:02;;;;;;;1999.90;999.90;;;;;;;;;;4937500;29;20244;-69
2023/10/25 09:48:53;;;;;;;1999.90;999.90;;;;;;;;;;4935276;29;20330;-69
2023/10/25 09:51:42;;;;;;;1999.90;999.90;;;;;;;;;;4942911;29;20213;-70
2023/10/25 09:54:30;;;;;;;1999.90;999.90;;;;;;;;;;4940413;29;20274;-70
2023/10/25 09:57:17;;;;;;;1999.90;999.90;;;;;;;;;;4945976;29;20937;-69
2023/10/25 10:00:05;;;;;;;1999.90;999.90;;;;;;;;;;4936709;29;20209;-68
2023/10/25 10:02:51;;;;;;;1999.90;999.90;;;;;;;;;;4942722;28;20237;-68
2023/10/25 10:05:41;;;;;;;1999.90;999.90;;;;;;;;;;4952430;29;20332;-68
2023/10/25 10:08:31;;;;;;;1999.90;999.90;;;;;;;;;;4946287;29;20213;-68
2023/10/25 10:11:17;;;;;;;1999.90;999.90;;;;;;;;;;4935764;29;20314;-68
2023/10/25 10:14:17;;;;;;;1999.90;999.90;;;;;;;;;;4942663;29;20766;-67
2023/10/25 10:17:07;;;;;;;1999.90;999.90;;;;;;;;;;4936088;29;20216;-67
2023/10/25 10:19:52;;;;;;;1999.90;999.90;;;;;;;;;;4936587;29;20415;-67
2023/10/25 10:22:57;;;;;;;1999.90;999.90;;;;;;;;;;4940219;28;20229;-68
2023/10/25 10:25:46;;;;;;;1999.90;999.90;;;;;;;;;;4946132;29;20200;-68
2023/10/25 10:28:39;;;;;;;1999.90;999.90;;;;;;;;;;4938492;29;20221;-67
2023/10/25 10:31:24;;;;;;;1999.90;999.90;;;;;;;;;;4930206;29;20670;-67
2023/10/25 10:34:10;;;;;;;1999.90;999.90;;;;;;;;;;4932561;29;20225;-68
2023/10/25 10:37:06;;;;;;;1999.90;999.90;;;;;;;;;;4935849;29;20252;-67
2023/10/25 10:40:09;;;;;;;1999.90;999.90;;;;;;;;;;4945761;29;20220;-68
2023/10/25 10:42:54;;;;;;;1999.90;999.90;;;;;;;;;;4936563;28;20229;-68
2023/10/25 10:45:43;;;;;;;1999.90;999.90;;;;;;;;;;4932051;29;20213;-67
2023/10/25 10:48:32;;;;;;;1999.90;999.90;;;;;;;;;;4938787;29;20209;-68
2023/10/25 10:51:19;;;;;;;1999.90;999.90;;;;;;;;;;4922196;29;20214;-68
2023/10/25 10:54:04;;;;;;;1999.90;999.90;;;;;;;;;;4925555;29;20654;-67
2023/10/25 10:56:50;;;;;;;1999.90;999.90;;;;;;;;;;4934620;29;20221;-67
2023/10/25 10:59:35;;;;;;;1999.90;999.90;;;;;;;;;;4945472;29;20211;-68
2023/10/25 11:02:20;;;;;;;1999.90;999.90;;;;;;;;;;4939770;28;20337;-68
2023/10/25 11:05:05;;;;;;;1999.90;999.90;;;;;;;;;;4945740;29;20207;-67
2023/10/25 11:07:52;;;;;;;1999.90;999.90;;;;;;;;;;4941542;29;20252;-67
2023/10/25 11:10:37;;;;;;;1999.90;999.90;;;;;;;;;;4944849;29;20337;-67
2023/10/25 11:13:22;;;;;;;1999.90;999.90;;;;;;;;;;4937761;28;20237;-68
2023/10/25 11:16:08;;;;;;;1999.90;999.90;;;;;;;;;;4931255;29;20448;-67
2023/10/25 11:19:05;;;;;;;1999.90;999.90;;;;;;;;;;4936865;29;20292;-68
2023/10/25 11:21:49;;;;;;;1999.90;999.90;;;;;;;;;;4934073;29;20705;-68
2023/10/25 11:24:36;;;;;;;1999.90;999.90;;;;;;;;;;4934041;29;20213;-68
2023/10/25 11:27:21;;;;;;;1999.90;999.90;;;;;;;;;;4929159;29;20310;-67
2023/10/25 11:30:06;;;;;;;1999.90;999.90;;;;;;;;;;4934071;29;20737;-68
2023/10/25 11:32:52;;;;;;;1999.90;999.90;;;;;;;;;;4933885;29;20240;-68
2023/10/25 11:35:41;;;;;;;1999.90;999.90;;;;;;;;;;4937536;29;20249;-68
2023/10/25 11:38:26;;;;;;;1999.90;999.90;;;;;;;;;;4936804;29;20433;-68
2023/10/25 11:41:13;;;;;;;1999.90;999.90;;;;;;;;;;4937643;29;20213;-67
2023/10/25 11:43:58;;;;;;;1999.90;999.90;;;;;;;;;;4945644;29;20369;-67
2023/10/25 11:46:44;;;;;;;1999.90;999.90;;;;;;;;;;4944430;29;20246;-67
2023/10/25 11:49:29;;;;;;;1999.90;999.90;;;;;;;;;;4937383;29;20209;-67
2023/10/25 11:52:14;;;;;;;1999.90;999.90;;;;;;;;;;4937676;29;20225;-67
2023/10/25 11:55:01;;;;;;;1999.90;999.90;;;;;;;;;;4937677;29;20209;-68
2023/10/25 11:57:48;;;;;;;1999.90;999.90;;;;;;;;;;4937620;29;20217;-68
2023/10/25 12:00:33;;;;;;;1999.90;999.90;;;;;;;;;;4935762;29;20214;-67
2023/10/25 12:03:17;;;;;;;1999.90;999.90;;;;;;;;;;4930839;29;20248;-68
2023/10/25 12:06:02;;;;;;;1999.90;999.90;;;;;;;;;;4942373;29;20213;-67
2023/10/25 12:08:47;;;;;;;1999.90;999.90;;;;;;;;;;4937020;29;20324;-67
2023/10/25 12:11:32;;;;;;;1999.90;999.90;;;;;;;;;;4937214;29;20258;-68
2023/10/25 12:14:18;;;;;;;1999.90;999.90;;;;;;;;;;4936897;29;20297;-68
2023/10/25 12:17:03;;;;;;;1999.90;999.90;;;;;;;;;;4936904;29;20232;-68
2023/10/25 12:19:50;;;;;;;1999.90;999.90;;;;;;;;;;4936823;29;20598;-68
2023/10/25 12:22:35;;;;;;;1999.90;999.90;;;;;;;;;;4936623;29;20678;-67
2023/10/25 12:25:20;;;;;;;1999.90;999.90;;;;;;;;;;4936849;29;20265;-68
2023/10/25 12:28:05;;;;;;;1999.90;999.90;;;;;;;;;;4936940;29;20213;-68
2023/10/25 12:30:51;;;;;;;1999.90;999.90;;;;;;;;;;4936849;29;20221;-68
2023/10/25 12:33:36;;;;;;;1999.90;999.90;;;;;;;;;;4936330;29;20936;-68
2023/10/25 12:36:21;;;;;;;1999.90;999.90;;;;;;;;;;4936495;29;20214;-68
2023/10/25 12:39:06;;;;;;;1999.90;999.90;;;;;;;;;;4936542;29;20289;-68
2023/10/25 12:41:51;;;;;;;1999.90;999.90;;;;;;;;;;4936618;29;20275;-68
2023/10/25 12:44:36;;;;;;;1999.90;999.90;;;;;;;;;;4936647;29;20822;-67
2023/10/25 12:47:23;;;;;;;1999.90;999.90;;;;;;;;;;4935703;29;20265;-67
2023/10/25 12:50:09;;;;;;;1999.90;999.90;;;;;;;;;;4936205;29;20212;-68
2023/10/25 12:52:54;;;;;;;1999.90;999.90;;;;;;;;;;4936265;29;20278;-69
2023/10/25 12:55:39;;;;;;;1999.90;999.90;;;;;;;;;;4936249;29;20802;-68
2023/10/25 12:58:24;;;;;;;1999.90;999.90;;;;;;;;;;4935823;29;20260;-68
2023/10/25 13:01:09;;;;;;;1999.90;999.90;;;;;;;;;;4936106;29;20337;-67
2023/10/25 13:03:55;;;;;;;1999.90;999.90;;;;;;;;;;4935870;29;20241;-68
2023/10/25 13:06:40;;;;;;;1999.90;999.90;;;;;;;;;;4935628;29;20217;-67
2023/10/25 13:09:25;;;;;;;1999.90;999.90;;;;;;;;;;4940158;29;20289;-68
2023/10/25 13:12:10;;;;;;;1999.90;999.90;;;;;;;;;;4939542;29;20269;-68
2023/10/25 13:14:55;;;;;;;1999.90;999.90;;;;;;;;;;4940208;29;20333;-67
2023/10/25 13:17:40;;;;;;;1999.90;999.90;;;;;;;;;;4943905;29;20629;-67
2023/10/25 13:20:26;;;;;;;1999.90;999.90;;;;;;;;;;4916968;29;20206;-68
2023/10/25 13:23:11;;;;;;;1999.90;999.90;;;;;;;;;;4939121;28;20721;-68
2023/10/25 13:25:56;;;;;;;1999.90;999.90;;;;;;;;;;4933066;29;20336;-68
2023/10/25 13:28:41;;;;;;;1999.90;999.90;;;;;;;;;;4943288;29;20209;-68
2023/10/25 13:31:26;;;;;;;1999.90;999.90;;;;;;;;;;4942856;29;20208;-68
2023/10/25 13:34:11;;;;;;;1999.90;999.90;;;;;;;;;;4946176;28;20296;-68
2023/10/25 13:36:57;;;;;;;1999.90;999.90;;;;;;;;;;4946802;29;20216;-68
2023/10/25 13:39:42;;;;;;;1999.90;999.90;;;;;;;;;;4954846;29;20212;-68
2023/10/25 13:42:27;;;;;;;1999.90;999.90;;;;;;;;;;4954909;28;20729;-68
2023/10/25 13:45:12;;;;;;;1999.90;999.90;;;;;;;;;;4943966;29;20742;-68
2023/10/25 13:47:57;;;;;;;1999.90;999.90;;;;;;;;;;4950725;29;20208;-68
2023/10/25 13:50:41;;;;;;;1999.90;999.90;;;;;;;;;;4954764;29;20212;-68
2023/10/25 13:53:28;;;;;;;1999.90;999.90;;;;;;;;;;4949447;28;20962;-68
2023/10/25 13:56:13;;;;;;;1999.90;999.90;;;;;;;;;;4946229;29;20209;-68
2023/10/25 13:58:58;;;;;;;1999.90;999.90;;;;;;;;;;4953702;29;20204;-68
2023/10/25 14:01:43;;;;;;;1999.90;999.90;;;;;;;;;;4954590;29;20220;-68
2023/10/25 14:04:31;;;;;;;1999.90;999.90;;;;;;;;;;4946253;29;20212;-67
2023/10/25 14:07:16;;;;;;;1999.90;999.90;;;;;;;;;;4926892;29;20641;-68
2023/10/25 14:10:02;;;;;;;1999.90;999.90;;;;;;;;;;4934805;29;20225;-68
2023/10/25 14:12:47;;;;;;;1999.90;999.90;;;;;;;;;;4934954;29;20240;-68
2023/10/25 14:15:34;;;;;;;1999.90;999.90;;;;;;;;;;4934193;29;20293;-68
2023/10/25 14:18:19;;;;;;;1999.90;999.90;;;;;;;;;;4933959;29;20269;-68
2023/10/25 14:21:08;;;;;;;1999.90;999.90;;;;;;;;;;4943726;29;20233;-68
2023/10/25 14:23:53;;;;;;;1999.90;999.90;;;;;;;;;;4932079;28;20225;-68
2023/10/25 14:26:40;;;;;;;1999.90;999.90;;;;;;;;;;4929829;29;20341;-68
2023/10/25 14:29:25;;;;;;;1999.90;999.90;;;;;;;;;;4934032;29;20698;-68
2023/10/25 14:32:10;;;;;;;1999.90;999.90;;;;;;;;;;4941970;28;20268;-68
2023/10/25 14:34:55;;;;;;;1999.90;999.90;;;;;;;;;;4945926;29;20228;-68
2023/10/25 14:37:41;;;;;;;1999.90;999.90;;;;;;;;;;4954094;29;20235;-68
2023/10/25 14:40:25;;;;;;;1999.90;999.90;;;;;;;;;;4932568;29;20208;-68
2023/10/25 14:43:12;;;;;;;1999.90;999.90;;;;;;;;;;4942729;28;20292;-68
2023/10/25 14:45:57;;;;;;;1999.90;999.90;;;;;;;;;;4938856;29;20213;-68
2023/10/25 14:48:42;;;;;;;1999.90;999.90;;;;;;;;;;4933919;29;20214;-68
2023/10/25 14:51:27;;;;;;;1999.90;999.90;;;;;;;;;;4934677;29;20599;-67
2023/10/25 14:54:13;;;;;;;1999.90;999.90;;;;;;;;;;4934329;29;20236;-68
2023/10/25 14:56:59;;;;;;;1999.90;999.90;;;;;;;;;;4934582;29;20273;-68
2023/10/25 14:59:45;;;;;;;1999.90;999.90;;;;;;;;;;4934391;29;20262;-67
2023/10/25 15:02:30;;;;;;;1999.90;999.90;;;;;;;;;;4942226;29;20253;-68
2023/10/25 15:05:17;;;;;;;1999.90;999.90;;;;;;;;;;4934153;29;20212;-68
2023/10/25 15:08:02;;;;;;;1999.90;999.90;;;;;;;;;;4934373;29;20225;-68
2023/10/25 15:10:47;;;;;;;1999.90;999.90;;;;;;;;;;4946085;29;20212;-68
2023/10/25 15:13:32;;;;;;;1999.90;999.90;;;;;;;;;;4937063;29;20454;-68
2023/10/25 15:16:18;;;;;;;1999.90;999.90;;;;;;;;;;4940291;29;20357;-68
2023/10/25 15:19:04;;;;;;;1999.90;999.90;;;;;;;;;;4949356;29;20212;-68
2023/10/25 15:21:48;;;;;;;1999.90;999.90;;;;;;;;;;4950829;29;20271;-67
2023/10/25 15:24:37;;;;;;;1999.90;999.90;;;;;;;;;;4937838;29;20222;-67